Time;durP1;ratioP1;P1;durP2;ratioP2;P2;SDS_P1;SDS_P2;PMS_P1;PMS_P2;Temp;Humidity;BMP_temperature;BMP_pressure;BME280_temperature;BME280_humidity;BME280_pressure;Samples;Min_cycle;Max_cycle;Signal;HPM_P1;HPM_P2
2024/01/24 00:02:16;;;;;;;30.73;10.27;;;8.60;99.90;;;;;;6206680;23;20005;-68
2024/01/24 00:04:42;;;;;;;37.03;11.70;;;8.60;99.90;;;;;;6205891;23;20094;-65
2024/01/24 00:07:07;;;;;;;31.67;11.63;;;8.60;99.90;;;;;;6206140;23;20451;-65
2024/01/24 00:09:33;;;;;;;33.23;10.80;;;8.60;99.90;;;;;;6206668;23;20091;-67
2024/01/24 00:11:59;;;;;;;23.87;9.53;;;8.70;99.90;;;;;;6206636;23;20448;-69
2024/01/24 00:14:25;;;;;;;29.15;10.35;;;8.60;99.90;;;;;;6203774;23;20045;-71
2024/01/24 00:16:51;;;;;;;30.10;11.20;;;8.60;99.90;;;;;;6207642;23;20001;-66
2024/01/24 00:19:17;;;;;;;29.90;10.63;;;8.60;99.90;;;;;;6211590;23;20039;-67
2024/01/24 00:21:42;;;;;;;30.73;11.97;;;8.60;99.90;;;;;;6206042;23;20236;-66
2024/01/24 00:24:08;;;;;;;28.67;11.07;;;8.60;99.90;;;;;;6206308;23;20083;-66
2024/01/24 00:26:36;;;;;;;30.02;12.05;;;8.60;99.90;;;;;;6206035;23;20059;-66
2024/01/24 00:29:02;;;;;;;29.02;11.70;;;8.50;99.90;;;;;;6206416;23;20087;-66
2024/01/24 00:31:27;;;;;;;23.87;11.70;;;8.50;99.90;;;;;;6203672;23;20527;-67
2024/01/24 00:33:53;;;;;;;35.50;9.87;;;8.50;99.90;;;;;;6206270;23;20020;-69
2024/01/24 00:36:19;;;;;;;31.08;11.27;;;8.60;99.90;;;;;;6206009;23;20004;-66
2024/01/24 00:38:44;;;;;;;39.83;11.23;;;8.60;99.90;;;;;;6205444;23;20847;-69
2024/01/24 00:41:10;;;;;;;34.90;13.00;;;8.60;99.90;;;;;;6205372;23;20001;-66
2024/01/24 00:43:36;;;;;;;41.40;13.33;;;8.60;99.90;;;;;;6204983;23;20004;-66
2024/01/24 00:46:01;;;;;;;37.07;12.70;;;8.60;99.90;;;;;;6205601;23;20012;-70
2024/01/24 00:48:27;;;;;;;27.75;11.48;;;8.60;99.90;;;;;;6206614;23;20004;-68
2024/01/24 00:50:53;;;;;;;37.80;11.70;;;8.60;99.90;;;;;;6206306;23;20008;-69
2024/01/24 00:53:20;;;;;;;27.67;9.98;;;8.60;99.90;;;;;;6205317;23;20024;-66
2024/01/24 00:55:46;;;;;;;29.73;10.63;;;8.60;99.90;;;;;;6205381;23;20011;-65
2024/01/24 00:58:12;;;;;;;21.55;9.32;;;8.70;99.90;;;;;;6229623;23;20019;-70
2024/01/24 01:00:38;;;;;;;30.08;9.70;;;8.70;99.90;;;;;;6205766;23;20011;-67
2024/01/24 01:03:04;;;;;;;32.13;9.20;;;8.70;99.90;;;;;;6205624;23;20036;-69
2024/01/24 01:05:29;;;;;;;24.42;8.70;;;8.80;99.90;;;;;;6206384;23;20007;-68
2024/01/24 01:07:55;;;;;;;32.30;10.37;;;8.80;99.90;;;;;;6207763;23;20013;-71
2024/01/24 01:10:21;;;;;;;35.93;9.43;;;8.90;99.90;;;;;;6207842;23;20005;-70
2024/01/24 01:12:46;;;;;;;22.75;7.45;;;8.90;99.90;;;;;;6207550;23;20017;-67
2024/01/24 01:15:12;;;;;;;24.67;8.93;;;8.90;99.90;;;;;;6207434;23;20048;-69
2024/01/24 01:17:38;;;;;;;25.13;7.50;;;8.90;99.90;;;;;;6208207;23;20001;-70
2024/01/24 01:20:05;;;;;;;21.27;7.33;;;9.00;99.90;;;;;;6208495;23;20043;-70
2024/01/24 01:22:30;;;;;;;22.77;6.95;;;9.00;99.90;;;;;;6208141;23;20243;-69
2024/01/24 01:24:56;;;;;;;22.13;6.73;;;9.00;99.90;;;;;;6207840;23;20008;-69
2024/01/24 01:27:22;;;;;;;24.40;6.87;;;9.00;99.90;;;;;;6207552;23;20012;-66
2024/01/24 01:29:48;;;;;;;22.15;6.05;;;9.00;99.90;;;;;;6207540;23;20048;-69
2024/01/24 01:32:14;;;;;;;19.00;6.65;;;9.00;99.90;;;;;;6207555;23;20007;-68
2024/01/24 01:34:40;;;;;;;23.75;6.35;;;9.00;99.90;;;;;;6207580;23;20004;-67
2024/01/24 01:37:06;;;;;;;18.50;6.60;;;9.10;99.90;;;;;;6207645;23;20004;-65
2024/01/24 01:39:32;;;;;;;23.75;6.32;;;9.00;99.90;;;;;;6206102;23;20243;-67
2024/01/24 01:41:58;;;;;;;23.42;6.40;;;9.00;99.90;;;;;;6208047;23;20005;-66
2024/01/24 01:44:24;;;;;;;26.53;6.93;;;9.00;99.90;;;;;;6208244;23;20011;-66
2024/01/24 01:46:51;;;;;;;19.27;6.40;;;8.90;99.90;;;;;;6207353;23;20012;-65
2024/01/24 01:49:17;;;;;;;21.23;6.93;;;8.90;99.90;;;;;;6208110;23;20004;-65
2024/01/24 01:51:44;;;;;;;26.23;7.60;;;8.80;99.90;;;;;;6208336;23;20071;-66
2024/01/24 01:54:12;;;;;;;22.17;6.68;;;8.70;99.90;;;;;;6207217;23;20091;-64
2024/01/24 01:56:39;;;;;;;16.17;6.25;;;8.60;99.90;;;;;;6207487;23;20000;-66
2024/01/24 01:59:05;;;;;;;15.23;6.88;;;8.60;99.90;;;;;;6207446;23;20013;-66
2024/01/24 02:01:31;;;;;;;18.25;6.95;;;8.60;99.90;;;;;;6207539;23;20661;-67
2024/01/24 02:03:59;;;;;;;15.02;5.40;;;8.50;99.90;;;;;;6207308;23;20008;-65
2024/01/24 02:06:25;;;;;;;24.02;6.10;;;8.40;99.90;;;;;;6207534;23;20452;-65
2024/01/24 02:08:51;;;;;;;18.45;6.03;;;8.40;99.90;;;;;;6207936;23;20004;-67
2024/01/24 02:11:17;;;;;;;18.83;6.53;;;8.40;99.90;;;;;;6205357;23;20091;-66
2024/01/24 02:13:43;;;;;;;20.38;5.65;;;8.30;99.90;;;;;;6206673;23;20138;-67
2024/01/24 02:16:13;;;;;;;25.03;7.10;;;8.20;99.90;;;;;;6205591;23;20389;-68
2024/01/24 02:18:40;;;;;;;19.50;7.20;;;8.10;99.90;;;;;;6207312;23;20009;-66
2024/01/24 02:21:06;;;;;;;19.30;6.43;;;8.00;99.90;;;;;;6206938;23;20001;-67
2024/01/24 02:23:32;;;;;;;27.65;8.80;;;7.90;99.90;;;;;;6207583;23;20016;-71
2024/01/24 02:25:57;;;;;;;24.75;8.32;;;7.90;99.90;;;;;;6207664;23;20004;-72
2024/01/24 02:28:23;;;;;;;17.07;7.90;;;7.90;99.90;;;;;;6207425;23;20707;-67
2024/01/24 02:30:49;;;;;;;24.73;8.35;;;7.90;99.90;;;;;;6207403;23;20004;-66
2024/01/24 02:33:16;;;;;;;25.13;9.73;;;7.90;99.90;;;;;;6207038;23;20028;-65
2024/01/24 02:35:41;;;;;;;21.80;8.20;;;7.80;99.90;;;;;;6207176;23;20000;-66
2024/01/24 02:38:07;;;;;;;31.87;10.03;;;7.80;99.90;;;;;;6207913;23;20082;-68
2024/01/24 02:40:32;;;;;;;16.95;8.73;;;7.70;99.90;;;;;;6206344;23;20012;-68
2024/01/24 02:42:58;;;;;;;22.60;8.40;;;7.60;99.90;;;;;;6207075;23;20071;-69
2024/01/24 02:45:24;;;;;;;26.23;8.90;;;7.60;99.90;;;;;;6205349;23;20008;-66
2024/01/24 02:47:49;;;;;;;27.27;9.60;;;7.50;99.90;;;;;;6256183;22;20004;-69
2024/01/24 02:50:16;;;;;;;29.17;9.60;;;7.50;99.90;;;;;;6207131;23;20008;-68
2024/01/24 02:52:42;;;;;;;24.58;8.93;;;7.50;99.90;;;;;;6207055;23;20031;-68
2024/01/24 02:55:13;;;;;;;26.00;8.98;;;7.40;99.90;;;;;;6207203;23;20372;-66
2024/01/24 02:57:38;;;;;;;28.50;9.65;;;7.40;99.90;;;;;;6207176;23;20016;-66
2024/01/24 03:00:07;;;;;;;26.00;9.80;;;7.40;99.90;;;;;;6207449;23;19997;-67
2024/01/24 03:02:33;;;;;;;29.45;9.73;;;7.30;99.90;;;;;;6207315;23;20691;-66
2024/01/24 03:04:58;;;;;;;21.27;9.33;;;7.30;99.90;;;;;;6207505;23;20008;-68
2024/01/24 03:07:24;;;;;;;35.87;10.83;;;7.20;99.90;;;;;;6207578;23;20467;-68
2024/01/24 03:09:49;;;;;;;27.03;10.80;;;7.20;99.90;;;;;;6206958;23;20488;-67
2024/01/24 03:12:15;;;;;;;32.60;11.07;;;7.00;99.90;;;;;;6205495;23;20074;-66
2024/01/24 03:14:41;;;;;;;29.63;9.20;;;7.00;99.90;;;;;;6205516;23;20154;-65
2024/01/24 03:17:06;;;;;;;25.17;9.00;;;6.90;99.90;;;;;;6205731;23;20004;-69
2024/01/24 03:19:32;;;;;;;21.90;8.50;;;6.90;99.90;;;;;;6205664;23;20005;-70
2024/01/24 03:21:58;;;;;;;27.33;8.93;;;6.80;99.90;;;;;;6206207;23;20031;-70
2024/01/24 03:24:23;;;;;;;21.83;9.48;;;6.70;99.90;;;;;;6206535;23;20011;-68
2024/01/24 03:26:49;;;;;;;24.00;9.93;;;6.70;99.90;;;;;;6206597;23;20004;-69
2024/01/24 03:29:14;;;;;;;26.40;10.27;;;6.60;99.90;;;;;;6206398;23;20008;-69
2024/01/24 03:31:44;;;;;;;29.43;9.10;;;6.60;99.90;;;;;;6208001;23;20008;-66
2024/01/24 03:34:12;;;;;;;29.00;8.95;;;6.50;99.90;;;;;;6207864;23;20517;-65
2024/01/24 03:36:38;;;;;;;24.90;9.02;;;6.50;99.90;;;;;;6207726;23;20004;-67
2024/01/24 03:39:03;;;;;;;27.67;9.82;;;6.50;99.90;;;;;;6206908;23;20362;-66
2024/01/24 03:41:29;;;;;;;42.17;11.43;;;6.50;99.90;;;;;;6207335;23;20042;-68
2024/01/24 03:43:55;;;;;;;20.15;9.05;;;6.60;99.90;;;;;;6206280;23;20011;-69
2024/01/24 03:46:21;;;;;;;26.48;7.40;;;6.70;99.90;;;;;;6206532;22;20013;-65
2024/01/24 03:48:47;;;;;;;15.75;6.55;;;6.70;99.90;;;;;;6206004;23;20468;-68
2024/01/24 03:51:13;;;;;;;18.87;6.40;;;6.70;99.90;;;;;;6206122;23;20341;-65
2024/01/24 03:53:38;;;;;;;17.17;6.43;;;6.70;99.90;;;;;;6205754;23;20035;-69
2024/01/24 03:56:05;;;;;;;16.80;5.97;;;6.80;99.90;;;;;;6205685;23;20009;-70
2024/01/24 03:58:31;;;;;;;14.43;5.13;;;6.80;99.90;;;;;;6206579;23;20011;-69
2024/01/24 04:00:57;;;;;;;18.30;5.65;;;6.70;99.90;;;;;;6256159;22;20008;-70
2024/01/24 04:03:23;;;;;;;25.80;5.47;;;6.70;99.90;;;;;;6206932;23;20619;-66
2024/01/24 04:05:48;;;;;;;18.43;5.40;;;6.70;99.90;;;;;;6206726;23;20004;-67
2024/01/24 04:08:14;;;;;;;20.37;6.90;;;6.60;99.90;;;;;;6207210;23;20013;-66
2024/01/24 04:10:40;;;;;;;14.93;4.63;;;6.60;99.90;;;;;;6206738;23;20606;-67
2024/01/24 04:13:05;;;;;;;12.30;4.13;;;6.70;99.90;;;;;;6206208;23;20032;-67
2024/01/24 04:15:31;;;;;;;11.97;4.17;;;6.70;99.90;;;;;;6205187;23;20334;-67
2024/01/24 04:17:58;;;;;;;23.77;4.88;;;6.70;99.90;;;;;;6206253;23;20004;-68
2024/01/24 04:20:23;;;;;;;18.73;4.47;;;6.60;99.90;;;;;;6206239;23;20080;-65
2024/01/24 04:22:49;;;;;;;8.70;4.07;;;6.40;99.90;;;;;;6206700;23;20028;-66
2024/01/24 04:25:15;;;;;;;15.03;4.23;;;6.40;99.90;;;;;;6205917;23;20512;-68
2024/01/24 04:27:40;;;;;;;13.60;5.00;;;6.40;99.90;;;;;;6206675;23;20008;-70
2024/01/24 04:30:07;;;;;;;15.00;5.50;;;6.40;99.90;;;;;;6206017;23;20459;-69
2024/01/24 04:32:33;;;;;;;13.27;4.63;;;6.40;99.90;;;;;;6206487;23;20062;-65
2024/01/24 04:34:58;;;;;;;13.87;4.90;;;6.50;99.90;;;;;;6207303;23;20043;-70
2024/01/24 04:37:24;;;;;;;14.57;4.13;;;6.50;99.90;;;;;;6206509;23;20834;-67
2024/01/24 04:39:50;;;;;;;12.67;3.80;;;6.50;99.90;;;;;;6205549;23;20314;-65
2024/01/24 04:42:16;;;;;;;19.75;4.68;;;6.50;99.90;;;;;;6206279;23;20001;-67
2024/01/24 04:44:41;;;;;;;13.83;5.10;;;6.40;99.90;;;;;;6205956;23;20009;-67
2024/01/24 04:47:07;;;;;;;13.90;4.03;;;6.40;99.90;;;;;;6205704;23;20076;-66
2024/01/24 04:49:33;;;;;;;11.83;4.07;;;6.50;99.90;;;;;;6206458;23;20259;-68
2024/01/24 04:51:58;;;;;;;24.27;4.43;;;6.50;99.90;;;;;;6205908;23;20032;-65
2024/01/24 04:54:24;;;;;;;11.47;4.40;;;6.60;99.90;;;;;;6255277;22;20468;-66
2024/01/24 04:56:49;;;;;;;12.30;4.60;;;6.60;99.90;;;;;;6205949;23;20004;-69
2024/01/24 04:59:15;;;;;;;9.80;3.93;;;6.50;99.90;;;;;;6206289;23;20016;-66
2024/01/24 05:01:41;;;;;;;17.23;4.07;;;6.40;99.90;;;;;;6205440;23;20054;-66
2024/01/24 05:04:07;;;;;;;21.17;4.38;;;6.30;99.90;;;;;;6206054;23;20008;-68
2024/01/24 05:06:33;;;;;;;22.65;5.60;;;6.30;99.90;;;;;;6206031;23;20012;-65
2024/01/24 05:08:59;;;;;;;21.87;5.13;;;6.40;99.90;;;;;;6206079;23;20326;-65
2024/01/24 05:11:24;;;;;;;12.80;5.27;;;6.40;99.90;;;;;;6205841;23;20780;-65
2024/01/24 05:13:50;;;;;;;18.63;6.13;;;6.40;99.90;;;;;;6205924;23;20119;-66
2024/01/24 05:16:15;;;;;;;15.40;5.20;;;6.30;99.90;;;;;;6206490;23;19996;-66
2024/01/24 05:18:41;;;;;;;12.53;4.50;;;6.20;99.90;;;;;;6205846;23;20008;-66
2024/01/24 05:21:07;;;;;;;20.83;6.17;;;6.20;99.90;;;;;;6203621;23;20004;-68
2024/01/24 05:23:33;;;;;;;16.77;5.73;;;6.20;99.90;;;;;;6202681;23;20235;-71
2024/01/24 05:25:58;;;;;;;18.60;5.50;;;6.20;99.90;;;;;;6203278;23;20011;-69
2024/01/24 05:28:24;;;;;;;10.47;5.27;;;6.20;99.90;;;;;;6204217;23;20005;-69
2024/01/24 05:30:50;;;;;;;14.65;4.53;;;6.20;99.90;;;;;;6203716;22;20236;-70
2024/01/24 05:33:16;;;;;;;17.85;5.38;;;6.20;99.90;;;;;;6203961;23;20017;-69
2024/01/24 05:35:43;;;;;;;14.77;4.25;;;6.30;99.90;;;;;;6204113;23;20004;-70
2024/01/24 05:38:08;;;;;;;12.23;4.68;;;6.30;99.90;;;;;;6203829;23;20004;-69
2024/01/24 05:40:34;;;;;;;10.83;4.40;;;6.30;99.90;;;;;;6203176;23;20066;-67
2024/01/24 05:43:02;;;;;;;19.83;4.67;;;6.40;99.90;;;;;;6203589;23;20005;-68
2024/01/24 05:45:28;;;;;;;20.27;4.55;;;6.50;99.90;;;;;;6203624;23;20004;-69
2024/01/24 05:47:53;;;;;;;11.95;4.70;;;6.50;99.90;;;;;;6204105;23;20092;-69
2024/01/24 05:50:19;;;;;;;16.80;4.70;;;6.50;99.90;;;;;;6204350;23;20127;-68
2024/01/24 05:52:45;;;;;;;18.30;4.53;;;6.40;99.90;;;;;;6206054;23;20020;-66
2024/01/24 05:55:11;;;;;;;12.13;4.70;;;6.30;99.90;;;;;;6205956;23;20285;-68
2024/01/24 05:57:41;;;;;;;16.50;4.78;;;6.30;99.90;;;;;;6206489;23;20005;-68
2024/01/24 06:00:09;;;;;;;10.20;4.50;;;6.40;99.90;;;;;;6205220;23;20666;-67
2024/01/24 06:02:36;;;;;;;12.20;5.32;;;6.30;99.90;;;;;;6205461;23;20517;-68
2024/01/24 06:05:02;;;;;;;10.68;5.00;;;6.20;99.90;;;;;;6254471;22;20107;-68
2024/01/24 06:07:28;;;;;;;15.73;5.03;;;6.20;99.90;;;;;;6205291;23;20008;-68
2024/01/24 06:09:53;;;;;;;13.55;5.22;;;6.20;99.90;;;;;;6205303;23;20005;-69
2024/01/24 06:12:19;;;;;;;19.33;4.73;;;6.20;99.90;;;;;;6204943;23;20342;-67
2024/01/24 06:14:45;;;;;;;13.27;4.40;;;6.20;99.90;;;;;;6205192;23;20012;-66
2024/01/24 06:17:10;;;;;;;15.37;4.57;;;6.20;99.90;;;;;;6205492;23;20023;-67
2024/01/24 06:19:36;;;;;;;13.77;4.00;;;6.30;99.90;;;;;;6254766;22;20129;-68
2024/01/24 06:22:02;;;;;;;6.32;3.53;;;6.30;99.90;;;;;;6206300;23;20008;-67
2024/01/24 06:24:28;;;;;;;15.13;3.80;;;6.30;99.90;;;;;;6206640;23;20001;-67
2024/01/24 06:26:53;;;;;;;9.77;3.80;;;6.30;99.90;;;;;;6205668;23;20090;-66
2024/01/24 06:29:19;;;;;;;12.90;3.70;;;6.30;99.90;;;;;;6204982;23;20007;-67
2024/01/24 06:31:48;;;;;;;13.70;4.97;;;6.40;99.90;;;;;;6205037;23;20330;-68
2024/01/24 06:34:14;;;;;;;10.48;3.95;;;6.40;99.90;;;;;;6204741;23;20053;-66
2024/01/24 06:36:39;;;;;;;20.50;5.28;;;6.50;99.90;;;;;;6205357;23;20060;-67
2024/01/24 06:39:09;;;;;;;17.70;5.00;;;6.50;99.90;;;;;;6204943;23;20008;-66
2024/01/24 06:41:35;;;;;;;14.52;4.72;;;6.40;99.90;;;;;;6205547;23;20059;-68
2024/01/24 06:44:01;;;;;;;17.55;4.00;;;6.50;99.90;;;;;;6205640;23;20000;-67
2024/01/24 06:46:27;;;;;;;16.53;4.90;;;6.50;99.90;;;;;;6205943;23;20066;-67
2024/01/24 06:48:53;;;;;;;13.13;4.87;;;6.50;99.90;;;;;;6205723;22;20723;-67
2024/01/24 06:51:18;;;;;;;17.80;5.05;;;6.50;99.90;;;;;;6203836;23;20127;-67
2024/01/24 06:53:44;;;;;;;14.75;4.45;;;6.60;99.90;;;;;;6205711;23;20452;-67
2024/01/24 06:56:10;;;;;;;17.67;4.07;;;6.60;99.90;;;;;;6205602;23;20001;-66
2024/01/24 06:58:37;;;;;;;14.97;4.60;;;6.60;99.90;;;;;;6206526;23;20005;-67
2024/01/24 07:01:03;;;;;;;13.40;4.65;;;6.60;99.90;;;;;;6205939;23;20005;-67
2024/01/24 07:03:29;;;;;;;12.48;5.03;;;6.60;99.90;;;;;;6204606;23;20075;-68
2024/01/24 07:05:54;;;;;;;16.30;4.40;;;6.60;99.90;;;;;;6205201;23;20040;-69
2024/01/24 07:08:20;;;;;;;14.80;4.63;;;6.60;99.90;;;;;;6254559;22;20626;-67
2024/01/24 07:10:46;;;;;;;13.63;4.53;;;6.60;99.90;;;;;;6202467;23;20014;-68
2024/01/24 07:13:11;;;;;;;13.27;4.73;;;6.70;99.90;;;;;;6204342;23;20263;-69
2024/01/24 07:15:37;;;;;;;16.43;6.20;;;6.70;99.90;;;;;;6204179;23;20369;-69
2024/01/24 07:18:03;;;;;;;12.97;6.07;;;6.90;99.90;;;;;;6205003;23;20004;-68
2024/01/24 07:20:29;;;;;;;14.13;4.93;;;6.90;99.90;;;;;;6204705;23;20000;-66
2024/01/24 07:22:55;;;;;;;;;;;6.90;99.90;;;;;;6205134;23;20650;-67
2024/01/24 07:25:21;;;;;;;15.25;5.95;;;7.00;99.90;;;;;;6204094;23;19904;-70
2024/01/24 07:27:47;;;;;;;17.88;6.90;;;7.00;99.90;;;;;;6205010;22;20019;-68
2024/01/24 07:30:15;;;;;;;21.02;6.05;;;7.10;99.90;;;;;;6204466;23;20008;-68
2024/01/24 07:32:41;;;;;;;16.55;5.85;;;7.10;99.90;;;;;;6204661;23;20009;-69
2024/01/24 07:35:09;;;;;;;20.60;6.20;;;7.10;99.90;;;;;;6204577;23;20737;-68
2024/01/24 07:37:34;;;;;;;18.52;6.55;;;7.20;99.90;;;;;;6205189;23;20001;-69
2024/01/24 07:40:00;;;;;;;17.00;7.32;;;7.30;99.90;;;;;;6204895;23;20349;-68
2024/01/24 07:42:26;;;;;;;20.00;6.47;;;7.20;99.90;;;;;;6204792;23;20008;-69
2024/01/24 07:44:51;;;;;;;14.20;6.97;;;7.30;99.90;;;;;;6254183;22;20248;-69
2024/01/24 07:47:20;;;;;;;26.93;7.37;;;7.30;99.90;;;;;;6252977;22;21212;-68
2024/01/24 07:49:46;;;;;;;19.27;8.00;;;7.30;99.90;;;;;;6204732;23;20491;-69
2024/01/24 07:52:12;;;;;;;25.70;7.47;;;7.30;99.90;;;;;;6202414;23;20083;-67
2024/01/24 07:54:37;;;;;;;17.60;6.37;;;7.30;99.90;;;;;;6253038;22;20326;-66
2024/01/24 07:57:03;;;;;;;24.07;7.10;;;7.30;99.90;;;;;;6204137;23;20012;-68
2024/01/24 07:59:30;;;;;;;25.90;7.47;;;7.30;99.90;;;;;;6202837;23;20457;-66
2024/01/24 08:01:55;;;;;;;27.92;7.68;;;7.30;99.90;;;;;;6203606;23;20192;-70
2024/01/24 08:04:21;;;;;;;19.42;6.90;;;7.40;99.90;;;;;;6204311;23;20438;-67
2024/01/24 08:06:47;;;;;;;26.27;8.13;;;7.50;99.90;;;;;;6204437;23;20004;-70
2024/01/24 08:09:13;;;;;;;15.63;7.00;;;7.60;99.90;;;;;;6204653;23;20059;-68
2024/01/24 08:11:40;;;;;;;18.35;7.70;;;7.70;99.90;;;;;;6205264;23;20011;-66
2024/01/24 08:14:05;;;;;;;25.98;8.07;;;7.90;99.90;;;;;;6204754;23;20518;-66
2024/01/24 08:16:31;;;;;;;21.80;6.65;;;7.90;99.90;;;;;;6204790;23;20007;-68
2024/01/24 08:18:58;;;;;;;14.27;6.88;;;7.90;99.90;;;;;;6204601;23;20028;-66
2024/01/24 08:21:24;;;;;;;;;;;8.00;99.90;;;;;;6202879;23;20007;-66
2024/01/24 08:23:50;;;;;;;19.00;6.97;;;7.90;99.90;;;;;;6204597;23;19904;-66
2024/01/24 08:26:16;;;;;;;;;;;8.00;99.90;;;;;;6204846;23;20005;-67
2024/01/24 08:28:45;;;;;;;12.32;5.95;;;8.00;99.90;;;;;;6204307;23;19904;-67
2024/01/24 08:31:11;;;;;;;18.83;6.88;;;8.00;99.90;;;;;;6203717;23;20088;-65
2024/01/24 08:33:37;;;;;;;64.03;11.00;;;8.10;99.90;;;;;;6202561;23;20016;-65
2024/01/24 08:36:03;;;;;;;17.45;6.82;;;8.20;99.90;;;;;;6204484;23;20075;-65
2024/01/24 08:38:30;;;;;;;25.00;5.87;;;8.20;99.90;;;;;;6205304;23;20035;-66
2024/01/24 08:40:55;;;;;;;;;;;8.20;99.90;;;;;;6204480;23;20376;-65
2024/01/24 08:43:21;;;;;;;18.08;6.65;;;8.30;99.90;;;;;;6229227;23;20352;-65
2024/01/24 08:45:48;;;;;;;24.63;7.83;;;8.30;99.90;;;;;;6203392;23;20354;-66
2024/01/24 08:48:14;;;;;;;16.88;7.38;;;8.40;99.90;;;;;;6203730;23;20338;-66
2024/01/24 08:50:40;;;;;;;27.58;8.50;;;8.40;99.90;;;;;;6204670;23;19997;-66
2024/01/24 08:53:06;;;;;;;18.33;8.00;;;8.40;99.90;;;;;;6203888;23;20103;-69
2024/01/24 08:55:31;;;;;;;21.73;8.38;;;8.40;99.90;;;;;;6205959;23;20011;-69
2024/01/24 08:57:57;;;;;;;28.33;7.70;;;8.40;99.90;;;;;;6204846;23;20012;-67
2024/01/24 09:00:22;;;;;;;20.70;9.30;;;8.50;99.90;;;;;;6203834;23;20047;-65
2024/01/24 09:02:48;;;;;;;25.10;8.00;;;8.50;99.90;;;;;;6204273;23;20009;-68
2024/01/24 09:05:18;;;;;;;27.27;7.35;;;8.60;99.90;;;;;;6203062;23;20001;-67
2024/01/24 09:07:44;;;;;;;18.05;7.03;;;8.60;99.90;;;;;;6204439;23;20019;-67
2024/01/24 09:10:10;;;;;;;23.45;7.45;;;8.70;99.90;;;;;;6203248;23;20005;-70
2024/01/24 09:12:37;;;;;;;15.23;7.00;;;8.70;99.90;;;;;;6204081;23;20009;-65
2024/01/24 09:15:04;;;;;;;15.50;6.65;;;8.80;99.90;;;;;;6202461;23;20043;-65
2024/01/24 09:17:30;;;;;;;15.80;7.32;;;8.90;99.90;;;;;;6203786;23;20012;-65
2024/01/24 09:19:55;;;;;;;18.83;7.13;;;8.90;99.90;;;;;;6204156;23;20008;-67
2024/01/24 09:22:21;;;;;;;22.13;6.67;;;9.00;99.90;;;;;;6203649;23;20016;-64
2024/01/24 09:24:46;;;;;;;17.37;7.30;;;9.00;99.90;;;;;;6203254;23;20088;-64
2024/01/24 09:27:12;;;;;;;16.70;7.33;;;9.00;99.90;;;;;;6255066;22;20398;-65
2024/01/24 09:29:38;;;;;;;20.47;8.10;;;9.10;99.90;;;;;;6205751;23;20008;-67
2024/01/24 09:32:04;;;;;;;14.32;6.65;;;9.10;99.90;;;;;;6206765;23;20604;-66
2024/01/24 09:34:29;;;;;;;15.95;8.68;;;9.20;99.90;;;;;;6206001;22;20078;-66
2024/01/24 09:36:55;;;;;;;20.77;8.30;;;9.30;99.90;;;;;;6207449;23;20044;-66
2024/01/24 09:39:25;;;;;;;25.27;7.65;;;9.40;99.90;;;;;;6205658;23;20076;-66
2024/01/24 09:41:51;;;;;;;22.48;8.52;;;9.40;99.90;;;;;;6206543;23;20054;-68
2024/01/24 09:44:17;;;;;;;22.38;9.02;;;9.40;99.90;;;;;;6205526;23;20072;-65
2024/01/24 09:46:43;;;;;;;23.60;8.60;;;9.40;99.90;;;;;;6205116;23;20437;-68
2024/01/24 09:49:12;;;;;;;17.38;7.40;;;9.50;99.90;;;;;;6205537;23;20007;-64
2024/01/24 09:51:40;;;;;;;21.85;7.88;;;9.60;99.90;;;;;;6205466;23;20008;-65
2024/01/24 09:54:07;;;;;;;23.80;8.27;;;9.80;99.90;;;;;;6206172;23;20198;-67
2024/01/24 09:56:35;;;;;;;17.58;7.63;;;9.90;99.90;;;;;;6206372;23;20007;-64
2024/01/24 09:59:02;;;;;;;24.45;7.40;;;10.00;99.90;;;;;;6205456;23;20798;-66
2024/01/24 10:01:32;;;;;;;24.60;7.68;;;10.10;99.90;;;;;;6204973;23;20083;-64
2024/01/24 10:03:59;;;;;;;27.85;8.68;;;10.20;99.90;;;;;;6206028;23;20356;-69
2024/01/24 10:06:25;;;;;;;26.00;8.77;;;10.30;99.90;;;;;;6206452;23;20079;-66
2024/01/24 10:08:51;;;;;;;24.95;8.40;;;10.30;99.90;;;;;;6206644;23;20039;-68
2024/01/24 10:11:17;;;;;;;20.87;8.33;;;10.40;99.90;;;;;;6204769;23;20008;-65
2024/01/24 10:13:43;;;;;;;16.90;7.30;;;10.40;99.90;;;;;;6203847;23;20012;-65
2024/01/24 10:16:09;;;;;;;21.63;7.50;;;10.50;99.90;;;;;;6205144;23;20024;-64
2024/01/24 10:18:35;;;;;;;18.20;6.68;;;10.60;99.90;;;;;;6206594;23;20233;-66
2024/01/24 10:21:04;;;;;;;18.50;7.77;;;10.70;99.90;;;;;;6206893;23;20024;-64
2024/01/24 10:23:30;;;;;;;20.58;7.35;;;10.90;99.90;;;;;;6205765;23;20001;-65
2024/01/24 10:25:57;;;;;;;31.27;8.63;;;11.10;99.90;;;;;;6205557;23;20016;-67
2024/01/24 10:28:23;;;;;;;21.10;6.82;;;11.20;99.90;;;;;;6204855;23;20028;-64
2024/01/24 10:30:49;;;;;;;31.25;6.22;;;11.20;99.90;;;;;;6204748;23;20013;-65
2024/01/24 10:33:15;;;;;;;27.35;7.38;;;11.30;99.90;;;;;;6205682;23;20004;-68
2024/01/24 10:35:41;;;;;;;;;;;11.40;99.90;;;;;;6206101;23;20034;-68
2024/01/24 10:38:11;;;;;;;20.65;7.78;;;11.50;99.90;;;;;;6205126;23;20614;-66
2024/01/24 10:40:39;;;;;;;22.55;8.98;;;11.80;99.90;;;;;;6205589;23;20005;-67
2024/01/24 10:43:11;;;;;;;20.88;8.00;;;11.90;99.90;;;;;;6205762;23;20001;-67
2024/01/24 10:45:42;;;;;;;18.00;7.82;;;12.00;99.90;;;;;;6204659;23;20004;-66
2024/01/24 10:48:10;;;;;;;26.77;8.55;;;11.90;99.90;;;;;;6206910;23;20001;-67
2024/01/24 10:50:37;;;;;;;14.38;7.00;;;11.80;99.90;;;;;;6207675;23;20013;-65
2024/01/24 10:53:04;;;;;;;21.10;8.82;;;11.80;99.90;;;;;;6208196;23;20023;-65
2024/01/24 10:55:31;;;;;;;23.55;8.98;;;11.80;99.90;;;;;;6207716;23;20016;-66
2024/01/24 10:57:57;;;;;;;22.40;8.40;;;11.90;99.90;;;;;;6206206;23;20349;-66
2024/01/24 11:00:25;;;;;;;22.50;7.55;;;11.90;99.90;;;;;;6204864;23;20342;-65
2024/01/24 11:02:52;;;;;;;24.52;8.38;;;12.00;99.90;;;;;;6205426;23;20013;-67
2024/01/24 11:05:39;;;;;;;20.48;8.75;;;12.10;99.90;;;;;;6206817;23;20392;-68
2024/01/24 11:08:22;;;;;;;31.70;8.82;;;12.30;99.90;;;;;;6206755;23;20017;-65
2024/01/24 11:10:49;;;;;;;23.25;7.40;;;12.30;99.90;;;;;;6206104;23;20015;-65
2024/01/24 11:13:18;;;;;;;26.10;8.05;;;12.40;99.90;;;;;;6206928;23;20016;-67
2024/01/24 11:15:46;;;;;;;20.48;7.72;;;12.50;99.90;;;;;;6206891;23;20011;-64
2024/01/24 11:18:17;;;;;;;31.83;8.27;;;12.60;99.90;;;;;;6207202;23;20001;-68
2024/01/24 11:20:48;;;;;;;21.48;7.85;;;12.50;99.90;;;;;;6206590;23;20035;-69
2024/01/24 11:23:34;;;;;;;24.23;8.55;;;12.50;99.90;;;;;;6207109;23;20080;-68
2024/01/24 11:25:59;;;;;;;26.48;8.52;;;12.40;99.90;;;;;;6255375;22;20005;-66
2024/01/24 11:28:25;;;;;;;19.93;8.73;;;12.40;99.90;;;;;;6206815;23;20062;-67
2024/01/24 11:30:51;;;;;;;23.80;10.20;;;12.40;99.90;;;;;;6206071;23;20015;-68
2024/01/24 11:33:18;;;;;;;30.53;9.73;;;12.50;99.90;;;;;;6206413;23;20019;-66
2024/01/24 11:35:46;;;;;;;29.60;10.48;;;12.50;99.90;;;;;;6205942;23;20005;-68
2024/01/24 11:38:27;;;;;;;33.92;9.40;;;12.50;99.90;;;;;;6204385;23;20012;-64
2024/01/24 11:41:07;;;;;;;21.88;9.70;;;12.40;99.90;;;;;;6206531;23;19996;-65
2024/01/24 11:43:34;;;;;;;27.48;8.48;;;12.40;99.90;;;;;;6199443;23;20046;-64
2024/01/24 11:46:02;;;;;;;;;;;12.40;99.90;;;;;;6206133;23;20013;-64
2024/01/24 11:48:29;;;;;;;22.83;8.27;;;12.50;99.90;;;;;;6205434;23;19904;-64
2024/01/24 11:50:57;;;;;;;22.23;8.38;;;12.60;99.90;;;;;;6205554;23;20346;-64
2024/01/24 11:53:23;;;;;;;29.33;9.60;;;12.80;99.90;;;;;;6204521;23;20016;-64
2024/01/24 11:55:57;;;;;;;21.83;8.95;;;12.90;99.90;;;;;;6205846;23;19996;-65
2024/01/24 11:58:26;;;;;;;24.90;9.52;;;13.00;99.90;;;;;;6205918;23;20039;-68
2024/01/24 12:01:10;;;;;;;27.17;10.00;;;13.10;99.90;;;;;;6203732;23;20004;-70
2024/01/24 12:03:37;;;;;;;21.30;8.90;;;13.10;99.90;;;;;;6206808;23;20030;-68
2024/01/24 12:06:06;;;;;;;26.30;8.88;;;13.30;99.90;;;;;;6205764;23;20059;-71
2024/01/24 12:08:31;;;;;;;18.58;9.68;;;13.40;99.90;;;;;;6207529;23;20345;-69
2024/01/24 12:10:57;;;;;;;25.50;10.35;;;13.40;99.90;;;;;;6204100;23;20004;-66
2024/01/24 12:13:25;;;;;;;17.33;8.30;;;13.40;99.90;;;;;;6205740;23;20019;-65
2024/01/24 12:15:51;;;;;;;25.42;9.43;;;13.30;99.90;;;;;;6204956;23;20020;-68
2024/01/24 12:18:17;;;;;;;24.65;9.80;;;13.20;99.90;;;;;;6205972;23;20030;-67
2024/01/24 12:20:47;;;;;;;21.37;9.83;;;13.20;99.90;;;;;;6205355;23;20071;-68
2024/01/24 12:23:14;;;;;;;26.13;9.48;;;13.20;99.90;;;;;;6205621;23;20078;-68
2024/01/24 12:25:41;;;;;;;30.98;9.73;;;13.20;99.90;;;;;;6206205;23;20040;-64
2024/01/24 12:28:07;;;;;;;30.80;11.30;;;13.20;99.90;;;;;;6205666;23;20040;-65
2024/01/24 12:30:34;;;;;;;27.67;11.25;;;13.20;99.90;;;;;;6203005;23;20032;-66
2024/01/24 12:33:04;;;;;;;25.83;11.57;;;13.10;99.90;;;;;;6205453;23;20088;-69
2024/01/24 12:35:30;;;;;;;22.80;11.10;;;13.10;99.90;;;;;;6206164;23;20566;-68
2024/01/24 12:37:56;;;;;;;;;;;13.10;99.90;;;;;;6203362;23;20038;-70
2024/01/24 12:40:22;;;;;;;23.27;11.23;;;13.00;99.90;;;;;;6204448;23;19904;-69
2024/01/24 12:42:48;;;;;;;29.30;11.57;;;13.10;99.90;;;;;;6204835;23;20079;-68